Time;durP1;ratioP1;P1;durP2;ratioP2;P2;SDS_P1;SDS_P2;PMS_P1;PMS_P2;Temp;Humidity;BMP_temperature;BMP_pressure;BME280_temperature;BME280_humidity;BME280_pressure;Samples;Min_cycle;Max_cycle;Signal;HPM_P1;HPM_P2
2022/04/16 00:00:52;;;;;;;2.38;2.00;;;19.50;99.90;;;;;;4239068;27;20586;-73
2022/04/16 00:02:56;;;;;;;3.65;2.17;;;19.50;99.90;;;;;;4242889;27;20738;-73
2022/04/16 00:04:58;;;;;;;2.70;1.73;;;19.50;99.90;;;;;;4242103;27;20217;-73
2022/04/16 00:07:02;;;;;;;2.25;1.70;;;19.40;99.90;;;;;;4241813;27;20221;-73
2022/04/16 00:09:04;;;;;;;2.72;1.92;;;19.40;99.90;;;;;;4242483;27;20220;-73
2022/04/16 00:11:07;;;;;;;2.72;2.00;;;19.40;99.90;;;;;;4237747;27;20221;-73
2022/04/16 00:13:09;;;;;;;2.20;1.90;;;19.40;99.90;;;;;;4239419;27;20963;-73
2022/04/16 00:15:12;;;;;;;2.03;1.80;;;19.50;99.90;;;;;;4242510;27;20213;-73
2022/04/16 00:17:14;;;;;;;2.42;1.70;;;19.40;99.90;;;;;;4242227;27;20216;-73
2022/04/16 00:19:16;;;;;;;1.77;1.67;;;19.40;99.90;;;;;;4243030;27;20857;-73
2022/04/16 00:21:22;;;;;;;2.28;1.98;;;19.40;99.90;;;;;;4240988;27;20216;-73
2022/04/16 00:23:26;;;;;;;2.75;2.15;;;19.40;99.90;;;;;;4241562;27;20225;-73
2022/04/16 00:25:34;;;;;;;3.30;1.90;;;19.40;99.90;;;;;;4241120;27;20297;-73
2022/04/16 00:27:37;;;;;;;3.22;2.13;;;19.40;99.90;;;;;;4241925;27;20338;-73
2022/04/16 00:29:40;;;;;;;2.08;1.75;;;19.40;99.90;;;;;;4239190;27;20212;-73
2022/04/16 00:31:45;;;;;;;2.20;1.85;;;19.40;99.90;;;;;;4242363;27;20225;-73
2022/04/16 00:33:48;;;;;;;2.50;2.15;;;19.40;99.90;;;;;;4242980;28;20718;-73
2022/04/16 00:35:50;;;;;;;3.10;2.03;;;19.40;99.90;;;;;;4242058;27;20281;-73
2022/04/16 00:37:53;;;;;;;2.03;1.80;;;19.40;99.90;;;;;;4241371;27;20639;-73
2022/04/16 00:39:56;;;;;;;2.42;2.10;;;19.40;99.90;;;;;;4241396;27;20281;-73
2022/04/16 00:41:59;;;;;;;2.95;1.92;;;19.40;99.90;;;;;;4241645;27;20217;-73
2022/04/16 00:44:01;;;;;;;2.10;1.90;;;19.40;99.90;;;;;;4241757;27;20228;-73
2022/04/16 00:46:03;;;;;;;2.67;2.05;;;19.40;99.90;;;;;;4239427;28;20266;-73
2022/04/16 00:48:07;;;;;;;2.53;1.77;;;19.30;99.90;;;;;;4241551;27;20244;-73
2022/04/16 00:50:10;;;;;;;2.40;1.83;;;19.40;99.90;;;;;;4241682;27;20660;-73
2022/04/16 00:52:13;;;;;;;4.38;2.22;;;19.40;99.90;;;;;;4230253;27;20621;-73
2022/04/16 00:54:16;;;;;;;2.58;1.88;;;19.40;99.90;;;;;;4217463;28;20222;-73
2022/04/16 00:56:20;;;;;;;1.90;1.70;;;19.40;99.90;;;;;;4216453;28;20226;-73
2022/04/16 00:58:22;;;;;;;2.22;1.95;;;19.40;99.90;;;;;;4215289;28;20307;-73
2022/04/16 01:00:24;;;;;;;1.90;1.70;;;19.40;99.90;;;;;;4221175;28;20626;-73
2022/04/16 01:02:27;;;;;;;2.40;1.92;;;19.40;99.90;;;;;;4217949;28;20871;-73
2022/04/16 01:04:29;;;;;;;2.20;1.98;;;19.40;99.90;;;;;;4218056;28;20222;-73
2022/04/16 01:06:38;;;;;;;2.80;2.30;;;19.40;99.90;;;;;;4225788;28;20222;-73
2022/04/16 01:08:41;;;;;;;2.63;1.88;;;19.40;99.90;;;;;;4225904;27;20234;-73
2022/04/16 01:10:43;;;;;;;3.75;1.80;;;19.40;99.90;;;;;;4227726;28;20226;-73
2022/04/16 01:12:47;;;;;;;1.83;1.73;;;19.40;99.90;;;;;;4227131;27;20234;-73
2022/04/16 01:14:50;;;;;;;2.17;1.98;;;19.30;99.90;;;;;;4226730;28;20214;-73
2022/04/16 01:16:53;;;;;;;3.15;1.90;;;19.30;99.90;;;;;;4227135;27;20259;-73
2022/04/16 01:18:56;;;;;;;2.05;1.85;;;19.30;99.90;;;;;;4227122;28;20222;-73
2022/04/16 01:20:59;;;;;;;2.45;2.25;;;19.30;99.90;;;;;;4226137;28;20716;-73
2022/04/16 01:23:04;;;;;;;3.13;2.00;;;19.30;99.90;;;;;;4226656;28;20222;-73
2022/04/16 01:25:07;;;;;;;2.40;2.20;;;19.30;99.90;;;;;;4226928;28;20687;-73
2022/04/16 01:27:10;;;;;;;3.03;1.98;;;19.40;99.90;;;;;;4227562;27;20299;-73
2022/04/16 01:29:12;;;;;;;2.92;2.10;;;19.30;99.90;;;;;;4219880;28;20283;-76
2022/04/16 01:31:15;;;;;;;2.13;1.92;;;19.30;99.90;;;;;;4227883;28;21011;-76
2022/04/16 01:33:17;;;;;;;3.10;2.08;;;19.30;99.90;;;;;;4226871;28;20751;-75
2022/04/16 01:35:19;;;;;;;2.28;2.08;;;19.30;99.90;;;;;;4226201;28;20271;-75
2022/04/16 01:37:23;;;;;;;2.28;2.00;;;19.30;99.90;;;;;;4224852;28;20271;-76
2022/04/16 01:39:26;;;;;;;2.67;2.20;;;19.30;99.90;;;;;;4222204;27;20655;-76
2022/04/16 01:41:29;;;;;;;2.75;2.13;;;19.30;99.90;;;;;;4224562;27;20214;-76
2022/04/16 01:43:31;;;;;;;3.40;2.20;;;19.30;99.90;;;;;;4223403;27;20290;-76
2022/04/16 01:45:34;;;;;;;3.00;2.30;;;19.30;99.90;;;;;;4222409;28;20214;-75
2022/04/16 01:47:38;;;;;;;2.42;2.10;;;19.30;99.90;;;;;;4224050;27;20225;-76
2022/04/16 01:49:41;;;;;;;3.30;2.20;;;19.30;99.90;;;;;;4220761;28;20241;-76
2022/04/16 01:51:43;;;;;;;2.53;2.15;;;19.30;99.90;;;;;;4223621;28;20225;-75
2022/04/16 01:53:46;;;;;;;2.15;1.92;;;19.30;99.90;;;;;;4224834;28;20283;-76
2022/04/16 01:55:50;;;;;;;3.33;2.40;;;19.30;99.90;;;;;;4226598;27;20670;-76
2022/04/16 01:57:53;;;;;;;2.22;2.03;;;19.30;99.90;;;;;;4227022;28;20213;-76
2022/04/16 01:59:56;;;;;;;2.38;2.08;;;19.30;99.90;;;;;;4226652;28;20222;-76
2022/04/16 02:01:58;;;;;;;2.38;2.15;;;19.30;99.90;;;;;;4226350;28;20282;-76
2022/04/16 02:04:00;;;;;;;2.75;1.95;;;19.20;99.90;;;;;;4227154;28;20590;-76
2022/04/16 02:06:03;;;;;;;2.15;1.95;;;19.20;99.90;;;;;;4225616;28;20221;-78
2022/04/16 02:08:07;;;;;;;2.33;2.00;;;19.20;99.90;;;;;;4225724;28;20198;-77
2022/04/16 02:10:12;;;;;;;2.63;2.17;;;19.20;99.90;;;;;;4224313;28;20635;-76
2022/04/16 02:12:15;;;;;;;2.42;2.10;;;19.20;99.90;;;;;;4225771;28;20213;-76
2022/04/16 02:14:18;;;;;;;4.68;2.55;;;19.20;99.90;;;;;;4226453;28;20226;-76
2022/04/16 02:16:20;;;;;;;1.92;1.83;;;19.20;99.90;;;;;;4225978;28;20743;-76
2022/04/16 02:18:23;;;;;;;2.20;1.90;;;19.20;99.90;;;;;;4225942;28;20205;-76
2022/04/16 02:20:25;;;;;;;2.20;1.90;;;19.20;99.90;;;;;;4226424;28;20694;-76
2022/04/16 02:22:38;;;;;;;2.30;2.10;;;19.20;99.90;;;;;;4226135;28;20275;-75
2022/04/16 02:24:40;;;;;;;3.08;2.33;;;19.20;99.90;;;;;;4225807;28;20217;-76
2022/04/16 02:26:43;;;;;;;3.47;2.25;;;19.20;99.90;;;;;;4224623;28;20284;-76
2022/04/16 02:28:48;;;;;;;2.50;2.20;;;19.20;99.90;;;;;;4224039;28;20758;-76
2022/04/16 02:30:50;;;;;;;4.82;2.63;;;19.20;99.90;;;;;;4225492;28;20230;-76
2022/04/16 02:32:53;;;;;;;2.75;2.10;;;19.20;99.90;;;;;;4226176;28;20271;-76
2022/04/16 02:34:56;;;;;;;3.10;2.35;;;19.20;99.90;;;;;;4226227;28;20282;-76
2022/04/16 02:36:58;;;;;;;2.60;2.40;;;19.20;99.90;;;;;;4209153;28;20238;-76
2022/04/16 02:39:01;;;;;;;2.15;1.95;;;19.10;99.90;;;;;;4208430;28;20753;-76
2022/04/16 02:41:03;;;;;;;2.75;2.50;;;19.10;99.90;;;;;;4206653;28;20819;-76
2022/04/16 02:43:06;;;;;;;2.85;2.40;;;19.10;99.90;;;;;;4206414;28;20695;-76
2022/04/16 02:47:30;;;;;;;2.75;2.50;;;19.20;99.90;;;;;;4208909;28;20206;-76
2022/04/16 02:49:33;;;;;;;2.80;2.40;;;19.10;99.90;;;;;;4200522;28;20239;-76
2022/04/16 02:51:36;;;;;;;3.28;2.53;;;19.10;99.90;;;;;;4195205;28;20223;-76
2022/04/16 02:53:38;;;;;;;3.00;2.75;;;19.10;99.90;;;;;;4201541;28;20219;-76
2022/04/16 02:55:46;;;;;;;2.55;2.10;;;19.10;99.90;;;;;;4195687;28;20276;-76
2022/04/16 02:57:49;;;;;;;3.28;2.60;;;19.10;99.90;;;;;;4202613;28;20230;-76
2022/04/16 02:59:52;;;;;;;2.92;2.45;;;19.10;99.90;;;;;;4206099;28;20339;-75
2022/04/16 03:01:55;;;;;;;3.25;2.28;;;19.10;99.90;;;;;;4188788;28;20226;-76
2022/04/16 03:03:58;;;;;;;3.78;2.45;;;19.10;99.90;;;;;;4193231;28;20341;-76
2022/04/16 03:06:00;;;;;;;3.60;2.40;;;19.10;99.90;;;;;;4198333;28;20223;-76
2022/04/16 03:08:07;;;;;;;2.90;2.60;;;19.10;99.90;;;;;;4192061;28;20312;-73
2022/04/16 03:10:10;;;;;;;3.55;2.20;;;19.10;99.90;;;;;;4195860;28;20277;-73
2022/04/16 03:12:12;;;;;;;2.60;2.40;;;19.10;99.90;;;;;;4205897;28;20216;-73
2022/04/16 03:18:55;;;;;;;3.42;2.22;;;19.10;99.90;;;;;;4194818;28;20203;-73
2022/04/16 03:20:59;;;;;;;2.42;2.22;;;19.10;99.90;;;;;;4202146;28;20288;-73
2022/04/16 03:23:02;;;;;;;2.75;2.55;;;19.00;99.90;;;;;;4208903;28;20551;-73
2022/04/16 03:25:07;;;;;;;2.85;2.55;;;19.10;99.90;;;;;;4208146;28;20234;-73
2022/04/16 03:27:09;;;;;;;2.70;2.50;;;19.00;99.90;;;;;;4207863;28;20226;-73
2022/04/16 03:29:11;;;;;;;3.83;2.30;;;19.00;99.90;;;;;;4206599;28;20230;-72
2022/04/16 03:31:14;;;;;;;3.28;2.50;;;19.10;99.90;;;;;;4207436;28;20239;-73
2022/04/16 03:33:16;;;;;;;2.58;2.38;;;19.10;99.90;;;;;;4208594;28;20222;-73
2022/04/16 03:35:21;;;;;;;2.33;2.13;;;19.10;99.90;;;;;;4206669;28;20272;-73
2022/04/16 03:37:24;;;;;;;2.50;2.30;;;19.10;99.90;;;;;;4206211;28;20222;-73
2022/04/16 03:39:27;;;;;;;3.35;2.47;;;19.10;99.90;;;;;;4203110;28;20210;-73
2022/04/16 03:41:29;;;;;;;3.60;2.85;;;19.00;99.90;;;;;;4206887;28;20272;-73
2022/04/16 03:43:31;;;;;;;2.67;2.40;;;19.00;99.90;;;;;;4208044;28;20272;-73
2022/04/16 03:45:35;;;;;;;3.58;2.72;;;19.00;99.90;;;;;;4208069;28;20226;-73
2022/04/16 03:47:37;;;;;;;2.97;2.28;;;19.00;99.90;;;;;;4208334;28;20272;-73
2022/04/16 03:49:40;;;;;;;3.25;2.63;;;19.10;99.90;;;;;;4206465;28;20351;-73
2022/04/16 03:51:44;;;;;;;2.80;2.60;;;19.00;99.90;;;;;;4207387;28;20221;-73
2022/04/16 03:53:46;;;;;;;2.65;2.38;;;19.00;99.90;;;;;;4206817;28;20268;-73
2022/04/16 04:00:35;;;;;;;2.85;2.65;;;19.00;99.90;;;;;;4155627;28;20270;-73
2022/04/16 04:02:38;;;;;;;2.67;2.47;;;18.90;99.90;;;;;;4202715;28;20280;-73
2022/04/16 04:04:43;;;;;;;3.08;2.65;;;19.00;99.90;;;;;;4207031;28;20269;-73
2022/04/16 04:06:46;;;;;;;2.97;2.65;;;18.90;99.90;;;;;;4207877;28;20265;-73
2022/04/16 04:08:49;;;;;;;3.00;2.63;;;18.90;99.90;;;;;;4207923;28;20264;-73
2022/04/16 04:10:51;;;;;;;3.00;2.45;;;18.90;99.90;;;;;;4206277;28;20787;-73
2022/04/16 04:12:53;;;;;;;2.70;2.50;;;18.90;99.90;;;;;;4207950;28;20230;-73
2022/04/16 04:14:55;;;;;;;2.80;2.60;;;18.90;99.90;;;;;;4206790;28;20240;-73
2022/04/16 04:16:58;;;;;;;2.60;2.40;;;18.90;99.90;;;;;;4208211;28;20748;-73
2022/04/16 04:19:00;;;;;;;2.47;2.28;;;19.00;99.90;;;;;;4207313;28;20644;-73
2022/04/16 04:21:02;;;;;;;3.38;3.03;;;18.90;99.90;;;;;;4207094;28;20219;-73
2022/04/16 04:23:06;;;;;;;3.50;2.67;;;18.90;99.90;;;;;;4207245;28;20280;-73
2022/04/16 04:25:09;;;;;;;2.88;2.65;;;18.90;99.90;;;;;;4206641;28;20339;-73
2022/04/16 04:27:12;;;;;;;3.22;2.90;;;18.90;99.90;;;;;;4204918;28;20218;-73
2022/04/16 04:29:14;;;;;;;2.90;2.50;;;18.90;99.90;;;;;;4207310;28;20636;-73
2022/04/16 04:31:16;;;;;;;2.92;2.60;;;18.90;99.90;;;;;;4207238;28;20635;-73
2022/04/16 04:33:19;;;;;;;4.20;2.95;;;18.90;99.90;;;;;;4207656;28;20210;-73
2022/04/16 04:35:21;;;;;;;3.05;2.75;;;18.90;99.90;;;;;;4207032;28;20260;-73
2022/04/16 04:37:24;;;;;;;2.40;2.20;;;18.90;99.90;;;;;;4209059;28;20625;-73
2022/04/16 04:39:27;;;;;;;3.28;2.90;;;18.90;99.90;;;;;;4209024;28;20210;-73
2022/04/16 04:41:30;;;;;;;2.90;2.60;;;18.90;99.90;;;;;;4216199;28;20350;-73
2022/04/16 04:43:33;;;;;;;2.95;2.67;;;18.90;99.90;;;;;;4208649;28;20620;-73
2022/04/16 04:45:35;;;;;;;2.80;2.60;;;18.90;99.90;;;;;;4200273;28;20222;-73
2022/04/16 04:47:38;;;;;;;2.67;2.35;;;18.90;99.90;;;;;;4212823;28;20602;-73
2022/04/16 04:49:40;;;;;;;2.63;2.42;;;18.90;99.90;;;;;;4210437;28;20655;-73
2022/04/16 04:51:42;;;;;;;2.90;2.55;;;18.90;99.90;;;;;;4207187;28;20278;-73
2022/04/16 04:53:45;;;;;;;3.42;2.65;;;18.90;99.90;;;;;;4212640;28;20715;-73
2022/04/16 04:55:49;;;;;;;2.70;2.50;;;18.80;99.90;;;;;;4210597;28;20747;-73
2022/04/16 04:57:54;;;;;;;2.53;2.33;;;18.80;99.90;;;;;;4212681;28;20634;-73
2022/04/16 04:59:56;;;;;;;3.50;3.20;;;18.80;99.90;;;;;;4212529;28;20260;-73
2022/04/16 05:01:59;;;;;;;3.45;2.88;;;18.80;99.90;;;;;;4210931;28;20272;-74
2022/04/16 05:04:01;;;;;;;3.75;3.20;;;18.90;99.90;;;;;;4215500;28;20214;-73
2022/04/16 05:06:03;;;;;;;2.90;2.60;;;18.90;99.90;;;;;;4209092;28;20265;-74
2022/04/16 05:08:06;;;;;;;3.42;2.90;;;18.90;99.90;;;;;;4209116;28;20228;-73
2022/04/16 05:10:09;;;;;;;2.97;2.58;;;18.80;99.90;;;;;;4208605;28;20242;-73
2022/04/16 05:12:13;;;;;;;2.78;2.55;;;18.80;99.90;;;;;;4210228;28;20222;-73
2022/04/16 05:14:15;;;;;;;3.88;2.95;;;18.80;99.90;;;;;;4209849;28;20260;-73
2022/04/16 05:16:17;;;;;;;3.13;2.50;;;18.80;99.90;;;;;;4212471;28;20622;-73
2022/04/16 05:18:20;;;;;;;4.05;2.92;;;18.90;99.90;;;;;;4207897;28;20275;-73
2022/04/16 05:20:22;;;;;;;3.60;2.63;;;18.80;99.90;;;;;;4209918;28;20222;-73
2022/04/16 05:22:24;;;;;;;3.47;2.95;;;18.80;99.90;;;;;;4209007;28;20226;-73
2022/04/16 05:24:27;;;;;;;3.13;2.83;;;18.80;99.90;;;;;;4209896;28;20289;-73
2022/04/16 05:26:29;;;;;;;2.83;2.63;;;18.80;99.90;;;;;;4202577;28;20261;-73
2022/04/16 05:28:33;;;;;;;3.20;2.88;;;18.80;99.90;;;;;;4207909;28;20272;-73
2022/04/16 05:30:38;;;;;;;3.10;2.80;;;18.90;99.90;;;;;;4208651;28;20283;-73
2022/04/16 05:32:42;;;;;;;3.10;2.80;;;18.80;99.90;;;;;;4209100;28;20219;-73
2022/04/16 05:34:43;;;;;;;3.67;2.80;;;18.80;99.90;;;;;;4207318;28;20234;-73
2022/04/16 05:36:47;;;;;;;4.00;2.83;;;18.90;99.90;;;;;;4205713;28;20284;-73
2022/04/16 05:38:50;;;;;;;3.78;3.20;;;18.90;99.90;;;;;;4204906;28;20264;-73
2022/04/16 05:40:52;;;;;;;2.90;2.60;;;18.80;99.90;;;;;;4206450;28;20761;-73
2022/04/16 05:42:54;;;;;;;2.95;2.75;;;18.90;99.90;;;;;;4205498;28;20253;-73
2022/04/16 05:45:02;;;;;;;3.70;2.88;;;18.90;99.90;;;;;;4209187;28;20666;-73
2022/04/16 05:47:05;;;;;;;3.17;2.80;;;18.90;99.90;;;;;;4209292;28;20272;-73
2022/04/16 05:49:07;;;;;;;3.78;3.08;;;18.90;99.90;;;;;;4207866;28;20218;-73
2022/04/16 05:51:09;;;;;;;3.13;2.88;;;18.90;99.90;;;;;;4208752;28;20242;-73
2022/04/16 05:53:14;;;;;;;3.28;2.95;;;18.90;99.90;;;;;;4207904;28;20268;-73
2022/04/16 05:55:16;;;;;;;3.47;3.17;;;18.80;99.90;;;;;;4209996;28;20219;-73
2022/04/16 05:57:19;;;;;;;3.13;2.83;;;18.90;99.90;;;;;;4208310;28;20230;-73
2022/04/16 05:59:22;;;;;;;3.42;2.80;;;18.80;99.90;;;;;;4209496;28;20230;-73
2022/04/16 06:01:26;;;;;;;3.80;2.85;;;18.90;99.90;;;;;;4208801;28;20571;-73
2022/04/16 06:03:29;;;;;;;3.03;2.72;;;18.90;99.90;;;;;;4209931;28;20226;-73
2022/04/16 06:05:32;;;;;;;2.97;2.70;;;18.90;99.90;;;;;;4209845;28;20581;-73
2022/04/16 06:07:34;;;;;;;3.30;3.00;;;18.90;99.90;;;;;;4208157;28;20264;-73
2022/04/16 06:09:37;;;;;;;2.80;2.60;;;18.90;99.90;;;;;;4207390;28;20211;-73
2022/04/16 06:11:39;;;;;;;4.03;3.05;;;18.90;99.90;;;;;;4208669;28;20238;-73
2022/04/16 06:13:41;;;;;;;3.13;2.72;;;18.90;99.90;;;;;;4209023;28;20644;-73
2022/04/16 06:15:43;;;;;;;3.13;2.80;;;18.90;99.90;;;;;;4210150;28;21009;-73
2022/04/16 06:17:47;;;;;;;2.92;2.72;;;18.90;99.90;;;;;;4209187;28;20281;-73
2022/04/16 06:19:50;;;;;;;3.40;3.10;;;18.90;99.90;;;;;;4208363;28;20218;-73
2022/04/16 06:21:52;;;;;;;3.10;2.80;;;18.90;99.90;;;;;;4208109;28;20215;-73
2022/04/16 06:23:55;;;;;;;3.03;2.67;;;18.90;99.90;;;;;;4208858;28;20756;-73
2022/04/16 06:25:57;;;;;;;3.30;3.00;;;18.90;99.90;;;;;;4206359;28;20260;-73
2022/04/16 06:28:00;;;;;;;3.10;2.80;;;18.90;99.90;;;;;;4209109;28;20227;-73
2022/04/16 06:30:03;;;;;;;3.45;2.97;;;18.90;99.90;;;;;;4209619;28;20623;-73
2022/04/16 06:32:06;;;;;;;3.67;3.03;;;18.90;99.90;;;;;;4209988;28;20772;-73
2022/04/16 06:34:10;;;;;;;3.25;2.95;;;18.90;99.90;;;;;;4208481;28;20222;-73
2022/04/16 06:36:12;;;;;;;3.55;3.10;;;18.90;99.90;;;;;;4209051;28;20287;-73
2022/04/16 06:38:14;;;;;;;3.95;3.25;;;18.90;99.90;;;;;;4212482;28;20280;-73
2022/04/16 06:40:17;;;;;;;4.10;3.30;;;18.90;99.90;;;;;;4211362;28;20245;-73
2022/04/16 06:42:19;;;;;;;4.45;3.05;;;18.90;99.90;;;;;;4210817;28;20223;-73
2022/04/16 06:44:24;;;;;;;3.53;3.22;;;18.90;99.90;;;;;;4212897;28;20687;-73
2022/04/16 06:46:27;;;;;;;4.90;3.05;;;18.90;99.90;;;;;;4214260;28;20230;-73
2022/04/16 06:48:29;;;;;;;3.15;2.70;;;18.90;99.90;;;;;;4212904;28;20222;-73
2022/04/16 06:50:33;;;;;;;3.10;2.83;;;18.90;99.90;;;;;;4213070;28;20268;-73
2022/04/16 06:52:35;;;;;;;2.63;2.42;;;18.90;99.90;;;;;;4215868;28;20206;-73
2022/04/16 06:54:37;;;;;;;3.70;3.22;;;18.90;99.90;;;;;;4212834;28;20234;-73
2022/04/16 06:56:40;;;;;;;3.13;2.83;;;18.90;99.90;;;;;;4212142;28;20223;-73
2022/04/16 06:58:42;;;;;;;3.13;2.83;;;18.90;99.90;;;;;;4212687;28;20222;-73
2022/04/16 07:00:44;;;;;;;4.13;2.92;;;18.90;99.90;;;;;;4211797;28;20218;-74
2022/04/16 07:02:47;;;;;;;3.40;2.67;;;18.90;99.90;;;;;;4214767;28;20218;-73
2022/04/16 07:04:49;;;;;;;2.97;2.67;;;18.90;99.90;;;;;;4210391;28;20257;-73
2022/04/16 07:06:53;;;;;;;3.78;2.85;;;18.90;99.90;;;;;;4202907;28;20219;-73
2022/04/16 07:08:55;;;;;;;3.42;2.83;;;18.90;99.90;;;;;;4200318;28;20245;-73
2022/04/16 07:10:57;;;;;;;3.22;2.85;;;18.90;99.90;;;;;;4214923;28;20245;-73
2022/04/16 07:13:00;;;;;;;3.45;3.15;;;18.90;99.90;;;;;;4212755;28;21454;-73
2022/04/16 07:15:02;;;;;;;3.03;2.78;;;18.90;99.90;;;;;;4205585;28;20214;-73
2022/04/16 07:17:05;;;;;;;3.75;3.05;;;18.90;99.90;;;;;;4213355;28;20222;-73
2022/04/16 07:19:09;;;;;;;3.15;2.70;;;18.90;99.90;;;;;;4216999;28;20263;-73
2022/04/16 07:21:11;;;;;;;3.20;2.90;;;18.90;99.90;;;;;;4210810;28;20579;-73
2022/04/16 07:23:14;;;;;;;3.00;2.70;;;18.90;99.90;;;;;;4203535;28;20666;-73
2022/04/16 07:25:17;;;;;;;2.50;2.30;;;18.90;99.90;;;;;;4208892;28;20271;-73
2022/04/16 07:27:19;;;;;;;3.70;2.90;;;18.90;99.90;;;;;;4210139;28;20282;-73
2022/04/16 07:29:22;;;;;;;2.80;2.58;;;18.90;99.90;;;;;;4206711;28;20213;-73
2022/04/16 07:31:24;;;;;;;3.30;2.83;;;18.90;99.90;;;;;;4212700;28;20695;-73
2022/04/16 07:33:29;;;;;;;2.45;2.25;;;18.90;99.90;;;;;;4209199;28;20222;-73
2022/04/16 07:35:32;;;;;;;3.85;2.88;;;18.90;99.90;;;;;;4209933;28;20280;-73
2022/04/16 07:37:34;;;;;;;2.80;2.50;;;18.90;99.90;;;;;;4208165;28;20214;-73
2022/04/16 07:39:38;;;;;;;3.20;2.90;;;18.90;99.90;;;;;;4207307;28;20674;-73
2022/04/16 07:41:40;;;;;;;2.85;2.65;;;18.90;99.90;;;;;;4207992;28;20299;-73
2022/04/16 07:43:42;;;;;;;3.13;2.70;;;18.90;99.90;;;;;;4207300;28;20264;-73
2022/04/16 07:45:45;;;;;;;2.95;2.65;;;19.00;99.90;;;;;;4207502;28;20231;-73
2022/04/16 07:47:47;;;;;;;3.20;2.90;;;18.90;99.90;;;;;;4206996;28;20264;-73
2022/04/16 07:49:50;;;;;;;2.90;2.58;;;19.00;99.90;;;;;;4208209;28;20222;-73
2022/04/16 07:51:52;;;;;;;2.72;2.53;;;18.90;99.90;;;;;;4205152;28;20284;-73
2022/04/16 07:53:56;;;;;;;2.80;2.50;;;19.00;99.90;;;;;;4207341;28;20244;-73
2022/04/16 07:55:59;;;;;;;2.83;2.55;;;19.00;99.90;;;;;;4208866;28;20227;-73
2022/04/16 07:58:02;;;;;;;2.72;2.53;;;19.00;99.90;;;;;;4207933;28;20248;-73
2022/04/16 08:00:05;;;;;;;3.35;2.63;;;19.00;99.90;;;;;;4207657;28;20643;-74
2022/04/16 08:02:08;;;;;;;2.60;2.40;;;19.00;99.90;;;;;;4207363;28;20272;-75
2022/04/16 08:04:10;;;;;;;2.60;2.40;;;18.90;99.90;;;;;;4207537;28;20248;-76
2022/04/16 08:06:12;;;;;;;2.60;2.40;;;18.90;99.90;;;;;;4206739;28;20225;-76
2022/04/16 08:08:14;;;;;;;2.67;2.47;;;18.90;99.90;;;;;;4205302;28;20222;-76
2022/04/16 08:10:17;;;;;;;2.90;2.40;;;18.90;99.90;;;;;;4207390;28;20280;-76
2022/04/16 08:12:21;;;;;;;2.97;2.70;;;18.90;99.90;;;;;;4207090;28;20655;-75
2022/04/16 08:14:25;;;;;;;3.00;2.40;;;18.90;99.90;;;;;;4207848;28;20210;-76
2022/04/16 08:16:27;;;;;;;2.45;2.25;;;18.90;99.90;;;;;;4208629;28;20708;-76
2022/04/16 08:18:30;;;;;;;2.90;2.65;;;19.00;99.90;;;;;;4208587;28;20230;-76
2022/04/16 08:20:32;;;;;;;3.17;2.88;;;19.00;99.90;;;;;;4206970;28;20218;-76
2022/04/16 08:22:35;;;;;;;2.85;2.53;;;19.00;99.90;;;;;;4206371;28;20225;-76
2022/04/16 08:24:41;;;;;;;3.53;2.55;;;19.00;99.90;;;;;;4207143;28;20214;-76
2022/04/16 08:26:44;;;;;;;3.00;2.70;;;19.00;99.90;;;;;;4204543;28;20686;-76
2022/04/16 08:28:47;;;;;;;3.72;2.70;;;19.00;99.90;;;;;;4206304;28;20219;-76
2022/04/16 08:30:51;;;;;;;2.63;2.42;;;19.10;99.90;;;;;;4207783;28;20288;-76
2022/04/16 08:32:54;;;;;;;2.70;2.50;;;19.10;99.90;;;;;;4206821;28;20238;-76
2022/04/16 08:34:57;;;;;;;2.72;2.20;;;19.10;99.90;;;;;;4207634;28;20218;-76
2022/04/16 08:36:59;;;;;;;2.55;2.35;;;19.10;99.90;;;;;;4214038;28;20309;-76
2022/04/16 08:39:01;;;;;;;2.50;2.20;;;19.10;99.90;;;;;;4210202;28;20218;-75
2022/04/16 08:41:05;;;;;;;2.70;2.35;;;19.10;99.90;;;;;;4209770;28;20225;-76
2022/04/16 08:43:08;;;;;;;3.03;2.50;;;19.20;99.90;;;;;;4206506;28;20215;-76
2022/04/16 08:45:13;;;;;;;2.30;2.10;;;19.20;99.90;;;;;;4208575;28;20279;-76
2022/04/16 08:47:16;;;;;;;2.40;2.20;;;19.20;99.90;;;;;;4212277;28;20267;-76
2022/04/16 08:49:19;;;;;;;2.72;2.20;;;19.20;99.90;;;;;;4209010;28;20991;-75
2022/04/16 08:51:22;;;;;;;2.45;2.20;;;19.20;99.90;;;;;;4208672;28;20276;-76
2022/04/16 08:53:24;;;;;;;3.30;2.53;;;19.20;99.90;;;;;;4212051;28;20230;-76
2022/04/16 08:55:28;;;;;;;2.75;2.30;;;19.20;99.90;;;;;;4212218;28;20611;-76
2022/04/16 08:57:30;;;;;;;2.55;2.22;;;19.20;99.90;;;;;;4210237;28;20272;-76
2022/04/16 08:59:33;;;;;;;2.72;2.53;;;19.20;99.90;;;;;;4206247;28;20302;-76
2022/04/16 09:01:36;;;;;;;2.70;2.28;;;19.30;99.90;;;;;;4209128;28;20256;-76
2022/04/16 09:03:40;;;;;;;2.78;2.15;;;19.30;99.90;;;;;;4208719;28;20260;-76
2022/04/16 09:05:43;;;;;;;3.00;2.00;;;19.30;99.90;;;;;;4208674;28;20214;-76
2022/04/16 09:07:46;;;;;;;2.13;1.90;;;19.30;99.90;;;;;;4209745;28;20222;-76
2022/04/16 09:09:48;;;;;;;2.30;2.10;;;19.30;99.90;;;;;;4209140;28;20222;-76
2022/04/16 09:11:50;;;;;;;2.30;2.10;;;19.30;99.90;;;;;;4208741;28;20222;-76
2022/04/16 09:13:53;;;;;;;2.20;2.00;;;19.30;99.90;;;;;;4213649;28;20698;-76
2022/04/16 09:16:04;;;;;;;2.65;2.20;;;19.30;99.90;;;;;;4205981;28;20659;-76
2022/04/16 09:18:08;;;;;;;2.53;1.98;;;19.30;99.90;;;;;;4211043;28;20218;-76
2022/04/16 09:20:12;;;;;;;2.08;1.85;;;19.30;99.90;;;;;;4212997;28;20368;-76
2022/04/16 09:22:30;;;;;;;2.25;2.05;;;19.40;99.90;;;;;;4208453;28;20260;-76
2022/04/16 09:24:45;;;;;;;2.90;2.33;;;19.30;99.90;;;;;;4214323;28;20230;-76
2022/04/16 09:26:50;;;;;;;2.55;2.20;;;19.40;99.90;;;;;;4215912;28;20802;-76
2022/04/16 09:28:53;;;;;;;2.67;2.15;;;19.40;99.90;;;;;;4215848;28;20215;-76
2022/04/16 09:30:56;;;;;;;2.40;2.15;;;19.40;99.90;;;;;;4213504;28;20651;-76
2022/04/16 09:33:00;;;;;;;2.88;1.95;;;19.40;99.90;;;;;;4212691;28;20296;-76
2022/04/16 09:35:04;;;;;;;2.20;1.85;;;19.40;99.90;;;;;;4211161;28;20269;-76
2022/04/16 09:37:13;;;;;;;2.63;2.10;;;19.40;99.90;;;;;;4226622;27;20229;-75
2022/04/16 09:39:16;;;;;;;2.13;1.92;;;19.40;99.90;;;;;;4228778;27;20642;-76
2022/04/16 09:41:18;;;;;;;2.03;1.92;;;19.40;99.90;;;;;;4226377;28;20225;-75
2022/04/16 09:43:21;;;;;;;2.05;1.85;;;19.40;99.90;;;;;;4226951;28;20255;-76
2022/04/16 09:45:23;;;;;;;2.10;1.85;;;19.40;99.90;;;;;;4225804;28;20641;-76
2022/04/16 09:47:27;;;;;;;2.30;2.10;;;19.40;99.90;;;;;;4226373;28;20221;-76
2022/04/16 09:49:34;;;;;;;2.20;2.00;;;19.40;99.90;;;;;;4225319;28;20275;-76
2022/04/16 09:51:40;;;;;;;1.92;1.73;;;19.40;99.90;;;;;;4228317;27;20217;-76
2022/04/16 09:53:44;;;;;;;2.42;2.10;;;19.40;99.90;;;;;;4226480;27;20697;-76
2022/04/16 09:55:46;;;;;;;2.17;1.98;;;19.50;99.90;;;;;;4226526;28;20218;-76
2022/04/16 09:57:52;;;;;;;2.35;2.15;;;19.40;99.90;;;;;;4226855;28;20271;-76
2022/04/16 09:59:58;;;;;;;2.30;2.10;;;19.40;99.90;;;;;;4225540;28;20692;-75
2022/04/16 10:02:03;;;;;;;2.15;1.90;;;19.40;99.90;;;;;;4225443;27;20274;-76
2022/04/16 10:04:08;;;;;;;3.00;2.25;;;19.40;99.90;;;;;;4227704;27;20214;-76
2022/04/16 10:06:11;;;;;;;2.17;1.98;;;19.40;99.90;;;;;;4227886;27;20665;-76
2022/04/16 10:08:15;;;;;;;2.53;2.03;;;19.40;99.90;;;;;;4225216;27;20573;-76
2022/04/16 10:10:25;;;;;;;2.20;2.00;;;19.40;99.90;;;;;;4225601;28;20632;-77
2022/04/16 10:14:55;;;;;;;2.67;1.92;;;19.40;99.90;;;;;;4224093;28;20615;-76
2022/04/16 10:17:08;;;;;;;2.20;1.92;;;19.50;99.90;;;;;;4227275;27;20228;-76
2022/04/16 10:19:17;;;;;;;2.55;2.00;;;19.50;99.90;;;;;;4225665;27;20229;-75
2022/04/16 10:21:20;;;;;;;2.80;2.08;;;19.50;99.90;;;;;;4221472;28;20263;-76
2022/04/16 10:23:28;;;;;;;2.03;1.80;;;19.40;99.90;;;;;;4225096;28;20678;-76
2022/04/16 10:25:34;;;;;;;2.30;2.03;;;19.40;99.90;;;;;;4225828;28;20221;-76
2022/04/16 10:27:41;;;;;;;1.80;1.70;;;19.40;99.90;;;;;;4221692;28;20219;-73
2022/04/16 10:29:48;;;;;;;2.33;1.95;;;19.50;99.90;;;;;;4225180;28;20218;-73
2022/04/16 10:31:51;;;;;;;3.38;2.08;;;19.40;99.90;;;;;;4226351;28;20266;-73
2022/04/16 10:34:00;;;;;;;2.20;1.80;;;19.50;99.90;;;;;;4227143;28;20290;-76
2022/04/16 10:36:09;;;;;;;2.50;2.10;;;19.50;99.90;;;;;;4220546;28;20677;-75
2022/04/16 10:38:22;;;;;;;1.80;1.70;;;19.50;99.90;;;;;;4211693;28;20276;-76
2022/04/16 10:40:26;;;;;;;1.98;1.77;;;19.50;99.90;;;;;;4207832;28;20226;-76
2022/04/16 10:42:32;;;;;;;2.28;1.90;;;19.50;99.90;;;;;;4209580;28;20218;-75
2022/04/16 10:44:45;;;;;;;2.30;2.10;;;19.50;99.90;;;;;;4208708;28;20246;-76
2022/04/16 10:46:48;;;;;;;2.03;1.83;;;19.40;99.90;;;;;;4210379;28;20240;-76
2022/04/16 10:48:51;;;;;;;2.25;2.05;;;19.50;99.90;;;;;;4208496;28;20641;-76
2022/04/16 10:50:54;;;;;;;1.80;1.70;;;19.50;99.90;;;;;;4208057;28;20230;-76
2022/04/16 10:52:57;;;;;;;3.08;2.13;;;19.50;99.90;;;;;;4209308;28;20678;-76
2022/04/16 10:55:02;;;;;;;1.90;1.80;;;19.50;99.90;;;;;;4209760;28;20214;-75
2022/04/16 10:57:07;;;;;;;2.28;2.08;;;19.50;99.90;;;;;;4208016;28;20218;-76